Time;durP1;ratioP1;P1;durP2;ratioP2;P2;SDS_P1;SDS_P2;PMS_P1;PMS_P2;Temp;Humidity;BMP_temperature;BMP_pressure;BME280_temperature;BME280_humidity;BME280_pressure;Samples;Min_cycle;Max_cycle;Signal;HPM_P1;HPM_P2
2021/08/14 00:01:30;;;;;;;11.53;10.37;;;21.10;99.90;;;;;;4992853;28;20215;-65
2021/08/14 00:03:55;;;;;;;10.80;9.90;;;21.10;99.90;;;;;;4992521;28;20181;-65
2021/08/14 00:06:21;;;;;;;12.77;11.57;;;21.00;99.90;;;;;;4996414;28;20175;-65
2021/08/14 00:08:46;;;;;;;11.20;10.10;;;20.90;99.90;;;;;;5006382;28;20237;-65
2021/08/14 00:11:13;;;;;;;11.20;10.27;;;21.00;99.90;;;;;;4993448;28;20206;-65
2021/08/14 00:13:38;;;;;;;10.20;9.20;;;20.90;99.90;;;;;;4993482;28;20256;-65
2021/08/14 00:16:04;;;;;;;10.03;9.03;;;20.90;99.90;;;;;;4992229;28;20510;-65
2021/08/14 00:18:30;;;;;;;11.00;10.10;;;20.90;99.90;;;;;;4992172;28;20206;-65
2021/08/14 00:20:55;;;;;;;10.47;9.67;;;20.90;99.90;;;;;;4992159;28;20920;-65
2021/08/14 00:23:21;;;;;;;11.20;10.23;;;20.90;99.90;;;;;;5003619;28;20739;-65
2021/08/14 00:25:46;;;;;;;9.20;8.30;;;20.80;99.90;;;;;;5001693;28;20176;-65
2021/08/14 00:28:12;;;;;;;9.90;9.00;;;20.80;99.90;;;;;;4992004;28;20200;-65
2021/08/14 00:30:38;;;;;;;9.97;8.77;;;20.80;99.90;;;;;;4992635;28;20222;-65
2021/08/14 00:33:03;;;;;;;10.90;9.80;;;20.80;99.90;;;;;;4996229;28;20564;-65
2021/08/14 00:35:29;;;;;;;12.53;10.40;;;20.90;99.90;;;;;;4996076;28;20177;-65
2021/08/14 00:37:54;;;;;;;11.30;9.47;;;20.90;99.90;;;;;;4996082;28;20573;-65
2021/08/14 00:40:20;;;;;;;11.83;9.73;;;21.00;99.90;;;;;;4995795;28;20168;-65
2021/08/14 00:42:45;;;;;;;10.47;9.43;;;20.90;99.90;;;;;;4995844;28;20199;-65
2021/08/14 00:45:11;;;;;;;10.80;9.80;;;20.90;99.90;;;;;;5005958;28;20542;-65
2021/08/14 00:47:41;;;;;;;10.30;9.60;;;20.90;99.90;;;;;;5010146;28;20179;-65
2021/08/14 00:50:09;;;;;;;10.33;9.43;;;20.80;99.90;;;;;;5006646;28;20260;-65
2021/08/14 00:52:34;;;;;;;11.10;10.03;;;20.80;99.90;;;;;;4996466;28;20450;-65
2021/08/14 00:55:00;;;;;;;11.97;10.23;;;20.70;99.90;;;;;;4995849;28;20775;-65
2021/08/14 00:57:25;;;;;;;10.23;9.03;;;20.70;99.90;;;;;;5001980;28;20171;-65
2021/08/14 00:59:52;;;;;;;11.87;9.13;;;20.70;99.90;;;;;;5014850;28;20200;-65
2021/08/14 01:02:18;;;;;;;9.30;8.50;;;20.70;99.90;;;;;;5003387;28;20281;-65
2021/08/14 01:04:48;;;;;;;9.83;8.90;;;20.60;99.90;;;;;;5008850;28;20585;-65
2021/08/14 01:07:14;;;;;;;10.20;9.20;;;20.60;99.90;;;;;;4998449;28;20437;-65
2021/08/14 01:09:40;;;;;;;10.50;9.70;;;20.60;99.90;;;;;;4996584;28;20542;-65
2021/08/14 01:12:06;;;;;;;14.23;9.83;;;20.70;99.90;;;;;;4995341;28;20518;-65
2021/08/14 01:14:32;;;;;;;10.30;9.30;;;20.60;99.90;;;;;;4995263;28;20180;-65
2021/08/14 01:16:59;;;;;;;11.17;10.07;;;20.50;99.90;;;;;;4995382;28;20481;-65
2021/08/14 01:19:24;;;;;;;10.73;9.73;;;20.50;99.90;;;;;;4994934;28;20171;-65
2021/08/14 01:21:51;;;;;;;10.77;9.67;;;20.40;99.90;;;;;;4977566;28;20470;-65
2021/08/14 01:24:17;;;;;;;11.23;10.30;;;20.40;99.90;;;;;;4977796;28;20540;-65
2021/08/14 01:26:46;;;;;;;11.83;10.00;;;20.40;99.90;;;;;;4995024;28;20426;-65
2021/08/14 01:29:12;;;;;;;10.47;9.47;;;20.40;99.90;;;;;;4995700;28;20470;-65
2021/08/14 01:31:41;;;;;;;9.30;8.33;;;20.40;99.90;;;;;;4994906;28;20447;-65
2021/08/14 01:34:07;;;;;;;10.67;9.67;;;20.30;99.90;;;;;;4994970;28;20187;-65
2021/08/14 01:36:32;;;;;;;11.00;9.20;;;20.10;99.90;;;;;;4994900;28;20434;-65
2021/08/14 01:39:01;;;;;;;10.53;9.43;;;20.10;99.90;;;;;;4994642;28;20183;-65
2021/08/14 01:41:27;;;;;;;10.87;9.97;;;20.00;99.90;;;;;;4994693;28;20198;-65
2021/08/14 01:43:58;;;;;;;10.10;9.27;;;19.90;99.90;;;;;;4994143;28;20426;-65
2021/08/14 01:46:26;;;;;;;12.60;11.50;;;19.90;99.90;;;;;;4996008;28;20431;-65
2021/08/14 01:48:52;;;;;;;10.47;9.67;;;19.90;99.90;;;;;;5003998;28;20433;-65
2021/08/14 01:51:17;;;;;;;11.77;10.57;;;19.90;99.90;;;;;;5013857;28;20554;-65
2021/08/14 01:53:50;;;;;;;10.93;9.87;;;19.90;99.90;;;;;;5014398;28;20372;-65
2021/08/14 01:56:17;;;;;;;10.80;9.80;;;19.90;99.90;;;;;;5013925;28;20175;-65
2021/08/14 01:58:43;;;;;;;10.70;9.70;;;20.00;99.90;;;;;;4994573;28;20433;-65
2021/08/14 02:01:09;;;;;;;10.30;9.50;;;19.90;99.90;;;;;;5012271;28;20446;-65
2021/08/14 02:03:36;;;;;;;10.73;9.63;;;20.00;99.90;;;;;;5013781;28;20667;-65
2021/08/14 02:06:02;;;;;;;9.90;9.00;;;20.00;99.90;;;;;;5013759;28;20426;-65
2021/08/14 02:08:28;;;;;;;10.57;9.60;;;19.90;99.90;;;;;;4998880;28;20431;-65
2021/08/14 02:10:54;;;;;;;13.43;9.53;;;19.90;99.90;;;;;;4994482;28;20462;-66
2021/08/14 02:13:19;;;;;;;10.73;9.73;;;19.90;99.90;;;;;;4995284;28;20489;-65
2021/08/14 02:15:45;;;;;;;10.70;9.70;;;19.90;99.90;;;;;;4994104;28;20590;-65
2021/08/14 02:18:10;;;;;;;9.90;8.87;;;19.90;99.90;;;;;;4994113;28;20187;-65
2021/08/14 02:20:36;;;;;;;10.00;9.00;;;19.90;99.90;;;;;;4993999;28;20210;-65
2021/08/14 02:23:01;;;;;;;11.00;9.90;;;19.90;99.90;;;;;;4993894;28;20241;-65
2021/08/14 02:25:27;;;;;;;11.07;10.17;;;20.00;99.90;;;;;;4994223;28;20183;-65
2021/08/14 02:27:52;;;;;;;10.50;9.50;;;19.90;99.90;;;;;;5011582;28;20698;-65
2021/08/14 02:30:18;;;;;;;10.20;9.30;;;19.80;99.90;;;;;;4998880;28;20218;-65
2021/08/14 02:32:43;;;;;;;12.10;9.30;;;19.70;99.90;;;;;;4993879;28;20188;-65
2021/08/14 02:35:09;;;;;;;9.60;8.67;;;19.60;99.90;;;;;;4993883;28;20194;-65
2021/08/14 02:37:35;;;;;;;11.00;10.07;;;19.60;99.90;;;;;;4994321;28;20176;-65
2021/08/14 02:40:00;;;;;;;11.80;10.60;;;19.60;99.90;;;;;;4993825;28;20180;-65
2021/08/14 02:42:26;;;;;;;10.33;9.43;;;19.50;99.90;;;;;;4993745;28;20203;-65
2021/08/14 02:44:51;;;;;;;11.20;10.20;;;19.50;99.90;;;;;;4993519;28;20531;-65
2021/08/14 02:47:16;;;;;;;11.20;10.30;;;19.50;99.90;;;;;;4993850;28;20262;-65
2021/08/14 02:49:42;;;;;;;12.40;11.20;;;19.50;99.90;;;;;;4998863;28;20199;-65
2021/08/14 02:52:07;;;;;;;9.50;8.70;;;19.50;99.90;;;;;;5012447;28;20868;-65
2021/08/14 02:54:33;;;;;;;10.37;9.37;;;19.60;99.90;;;;;;5007397;28;20168;-65
2021/08/14 02:56:58;;;;;;;11.03;9.27;;;19.50;99.90;;;;;;4993555;28;20182;-65
2021/08/14 02:59:24;;;;;;;9.83;8.70;;;19.60;99.90;;;;;;4993010;28;20180;-65
2021/08/14 03:01:50;;;;;;;10.27;9.27;;;19.50;99.90;;;;;;4994363;28;20621;-65
2021/08/14 03:04:15;;;;;;;11.03;10.13;;;19.50;99.90;;;;;;4998693;28;20533;-65
2021/08/14 03:06:41;;;;;;;10.20;9.50;;;19.40;99.90;;;;;;5011394;28;20177;-65
2021/08/14 03:09:08;;;;;;;12.53;11.43;;;19.30;99.90;;;;;;4994915;28;20204;-65
2021/08/14 03:11:34;;;;;;;11.03;10.07;;;19.20;99.90;;;;;;4993200;28;20751;-65
2021/08/14 03:14:00;;;;;;;11.73;10.63;;;19.30;99.90;;;;;;4993059;28;20447;-65
2021/08/14 03:16:25;;;;;;;10.93;9.93;;;19.20;99.90;;;;;;4993160;28;20465;-65
2021/08/14 03:18:51;;;;;;;13.10;9.63;;;19.20;99.90;;;;;;4992820;28;20218;-65
2021/08/14 03:21:16;;;;;;;11.50;10.40;;;19.20;99.90;;;;;;4992704;28;20211;-65
2021/08/14 03:23:42;;;;;;;10.97;10.07;;;19.20;99.90;;;;;;5004252;28;20175;-65
2021/08/14 03:26:08;;;;;;;10.70;9.80;;;19.10;99.90;;;;;;5012550;28;20167;-65
2021/08/14 03:28:33;;;;;;;10.43;9.33;;;19.20;99.90;;;;;;5011936;28;20216;-65
2021/08/14 03:30:59;;;;;;;10.50;9.47;;;19.30;99.90;;;;;;5012411;28;20203;-65
2021/08/14 03:33:24;;;;;;;11.87;10.77;;;19.30;99.90;;;;;;5012583;28;20721;-65
2021/08/14 03:35:50;;;;;;;10.53;9.53;;;19.30;99.90;;;;;;4993647;28;20641;-65
2021/08/14 03:38:16;;;;;;;10.83;9.87;;;19.20;99.90;;;;;;4996421;28;20675;-65
2021/08/14 03:40:41;;;;;;;11.80;10.70;;;19.30;99.90;;;;;;5012139;28;20975;-65
2021/08/14 03:43:07;;;;;;;10.60;9.70;;;19.30;99.90;;;;;;4994659;28;20199;-65
2021/08/14 03:45:32;;;;;;;9.83;8.93;;;19.30;99.90;;;;;;5012088;28;20772;-65
2021/08/14 03:47:58;;;;;;;10.80;9.90;;;19.30;99.90;;;;;;5012267;28;20178;-65
2021/08/14 03:50:23;;;;;;;10.27;9.37;;;19.30;99.90;;;;;;5000603;28;20272;-65
2021/08/14 03:52:49;;;;;;;10.00;9.10;;;19.20;99.90;;;;;;4989611;28;20191;-65
2021/08/14 03:55:14;;;;;;;11.70;10.57;;;19.20;99.90;;;;;;5002839;28;20531;-65
2021/08/14 03:57:40;;;;;;;11.93;10.63;;;19.10;99.90;;;;;;5011842;28;20185;-65
2021/08/14 04:00:06;;;;;;;10.30;9.30;;;18.90;99.90;;;;;;5010522;28;20262;-65
2021/08/14 04:02:31;;;;;;;10.87;9.83;;;18.90;99.90;;;;;;5000017;28;20338;-65
2021/08/14 04:04:57;;;;;;;10.80;9.80;;;18.90;99.90;;;;;;5003261;28;21002;-65
2021/08/14 04:07:22;;;;;;;10.37;9.37;;;18.80;99.90;;;;;;5015678;28;20166;-65
2021/08/14 04:09:48;;;;;;;12.03;10.63;;;18.80;99.90;;;;;;5000386;28;20203;-65
2021/08/14 04:12:13;;;;;;;11.10;10.03;;;18.70;99.90;;;;;;4996475;28;20191;-65
2021/08/14 04:14:39;;;;;;;10.40;9.60;;;18.80;99.90;;;;;;4996450;28;20211;-66
2021/08/14 04:17:05;;;;;;;12.10;10.90;;;18.80;99.90;;;;;;4996529;28;20188;-65
2021/08/14 04:19:30;;;;;;;11.00;9.90;;;18.70;99.90;;;;;;4999725;28;21946;-65
2021/08/14 04:21:56;;;;;;;11.10;10.20;;;18.80;99.90;;;;;;5016261;28;20211;-65
2021/08/14 04:24:21;;;;;;;13.93;10.60;;;18.80;99.90;;;;;;5015596;28;20175;-65
2021/08/14 04:26:47;;;;;;;13.60;12.30;;;18.70;99.90;;;;;;5015924;28;20178;-66
2021/08/14 04:29:12;;;;;;;13.47;12.27;;;18.70;99.90;;;;;;5013846;28;20594;-66
2021/08/14 04:31:38;;;;;;;11.30;10.17;;;18.70;99.90;;;;;;5013864;28;20199;-66
2021/08/14 04:34:04;;;;;;;12.77;11.57;;;18.80;99.90;;;;;;5015340;28;20182;-65
2021/08/14 04:36:29;;;;;;;12.70;11.50;;;18.80;99.90;;;;;;5008329;28;20187;-66
2021/08/14 04:38:55;;;;;;;14.33;13.03;;;18.90;99.90;;;;;;4996933;28;20317;-66
2021/08/14 04:41:21;;;;;;;12.73;11.63;;;18.90;99.90;;;;;;4996075;28;20535;-66
2021/08/14 04:43:46;;;;;;;12.50;11.00;;;18.90;99.90;;;;;;4995809;28;20179;-66
2021/08/14 04:46:12;;;;;;;11.97;10.80;;;18.80;99.90;;;;;;4996006;28;20160;-66
2021/08/14 04:48:37;;;;;;;13.37;10.33;;;19.00;99.90;;;;;;4996014;28;20178;-66
2021/08/14 04:51:03;;;;;;;11.47;10.47;;;19.10;99.90;;;;;;5015235;28;20205;-66
2021/08/14 04:53:29;;;;;;;11.93;10.93;;;19.20;99.90;;;;;;5013754;28;20185;-66
2021/08/14 04:55:54;;;;;;;11.90;10.70;;;19.30;99.90;;;;;;4997640;28;20175;-66
2021/08/14 04:58:20;;;;;;;12.40;11.00;;;19.50;99.90;;;;;;4995532;28;20176;-66
2021/08/14 05:00:45;;;;;;;10.90;9.83;;;19.50;99.90;;;;;;4996510;28;20262;-66
2021/08/14 05:03:11;;;;;;;11.80;10.60;;;19.50;99.90;;;;;;4995646;28;20676;-66
2021/08/14 05:05:36;;;;;;;11.80;10.60;;;19.50;99.90;;;;;;4996355;28;20554;-66
2021/08/14 05:08:02;;;;;;;13.50;11.90;;;19.60;99.90;;;;;;5001238;28;20183;-66
2021/08/14 05:10:27;;;;;;;12.90;11.57;;;19.60;99.90;;;;;;4985848;28;20226;-66
2021/08/14 05:12:53;;;;;;;11.03;9.53;;;19.70;99.90;;;;;;5014991;28;20687;-66
2021/08/14 05:15:18;;;;;;;11.70;9.93;;;19.80;99.90;;;;;;5014864;28;20168;-66
2021/08/14 05:17:44;;;;;;;10.27;9.37;;;20.00;99.90;;;;;;5013835;28;20477;-66
2021/08/14 05:20:10;;;;;;;11.63;10.60;;;20.10;99.90;;;;;;5014353;28;20179;-66
2021/08/14 05:22:35;;;;;;;14.40;10.60;;;20.20;99.90;;;;;;5014703;28;20211;-66
2021/08/14 05:25:01;;;;;;;10.70;9.80;;;20.30;99.90;;;;;;5014809;28;20224;-66
2021/08/14 05:27:26;;;;;;;10.60;9.70;;;20.40;99.90;;;;;;5014841;28;20171;-66
2021/08/14 05:29:52;;;;;;;12.70;11.60;;;20.50;99.90;;;;;;5014350;28;20183;-66
2021/08/14 05:32:17;;;;;;;12.93;11.33;;;20.70;99.90;;;;;;5014602;28;20241;-66
2021/08/14 05:34:43;;;;;;;11.43;10.33;;;20.80;99.90;;;;;;5014502;28;20171;-66
2021/08/14 05:37:08;;;;;;;11.40;10.37;;;21.00;99.90;;;;;;5014802;28;20309;-66
2021/08/14 05:39:34;;;;;;;12.23;10.47;;;21.10;99.90;;;;;;5014301;28;20536;-66
2021/08/14 05:41:59;;;;;;;12.13;11.07;;;21.20;99.90;;;;;;5014570;28;20202;-66
2021/08/14 05:44:25;;;;;;;11.70;10.77;;;21.30;99.90;;;;;;5014420;28;20175;-66
2021/08/14 05:46:50;;;;;;;11.47;10.57;;;21.40;99.90;;;;;;5014405;28;20569;-66
2021/08/14 05:49:16;;;;;;;11.93;10.93;;;21.60;99.90;;;;;;5013912;28;20230;-66
2021/08/14 05:51:41;;;;;;;12.20;10.80;;;21.70;99.90;;;;;;5014197;28;20205;-66
2021/08/14 05:54:07;;;;;;;13.37;10.60;;;21.80;99.90;;;;;;5014357;28;20703;-66
2021/08/14 05:56:33;;;;;;;11.73;10.63;;;21.80;99.90;;;;;;5014334;28;20175;-65
2021/08/14 05:58:59;;;;;;;11.07;10.07;;;21.80;99.90;;;;;;5013869;28;20181;-66
2021/08/14 06:01:24;;;;;;;10.73;9.70;;;21.90;99.90;;;;;;5014019;28;20676;-66
2021/08/14 06:03:50;;;;;;;11.23;10.23;;;21.90;99.90;;;;;;5014066;28;20418;-66
2021/08/14 06:06:15;;;;;;;12.20;10.20;;;22.10;99.90;;;;;;5013835;28;20266;-65
2021/08/14 06:08:41;;;;;;;11.67;10.50;;;22.20;99.90;;;;;;5013597;28;20210;-65
2021/08/14 06:11:06;;;;;;;10.90;10.00;;;22.40;99.90;;;;;;4996099;28;20234;-66
2021/08/14 06:13:32;;;;;;;14.77;10.27;;;22.70;99.90;;;;;;5013934;28;20175;-66
2021/08/14 06:15:58;;;;;;;11.70;10.57;;;22.90;99.90;;;;;;5013852;28;20250;-66
2021/08/14 06:18:23;;;;;;;11.10;10.20;;;23.20;99.90;;;;;;5013386;28;20211;-65
2021/08/14 06:20:49;;;;;;;11.17;10.10;;;23.20;99.90;;;;;;5013430;28;20257;-65
2021/08/14 06:23:14;;;;;;;9.70;8.57;;;23.20;99.90;;;;;;5013730;28;20588;-66
2021/08/14 06:25:40;;;;;;;10.47;9.47;;;23.20;99.90;;;;;;5013709;28;20186;-66
2021/08/14 06:28:05;;;;;;;11.00;9.97;;;23.30;99.90;;;;;;5013449;28;20182;-66
2021/08/14 06:30:31;;;;;;;10.83;9.83;;;23.30;99.90;;;;;;5012512;28;20595;-66
2021/08/14 06:32:58;;;;;;;11.63;10.53;;;23.30;99.90;;;;;;5013427;28;20194;-65
2021/08/14 06:35:23;;;;;;;11.47;10.47;;;23.50;99.90;;;;;;5013476;28;20636;-65
2021/08/14 06:37:49;;;;;;;10.13;9.23;;;23.80;99.90;;;;;;5007978;28;20463;-66
2021/08/14 06:40:15;;;;;;;10.20;9.20;;;24.00;99.90;;;;;;5004513;28;20190;-65
2021/08/14 06:42:41;;;;;;;11.20;10.20;;;24.10;99.90;;;;;;4999926;28;20223;-64
2021/08/14 06:45:08;;;;;;;10.20;9.30;;;24.00;99.90;;;;;;4978348;28;20183;-65
2021/08/14 06:47:33;;;;;;;11.13;9.67;;;24.10;99.90;;;;;;4997249;28;20648;-64
2021/08/14 06:49:59;;;;;;;10.93;10.03;;;24.10;99.90;;;;;;5012676;28;20484;-64
2021/08/14 06:52:25;;;;;;;9.83;8.93;;;24.50;99.90;;;;;;4994159;28;20210;-64
2021/08/14 06:54:51;;;;;;;11.20;10.10;;;24.50;99.90;;;;;;5011754;28;20182;-65
2021/08/14 06:57:16;;;;;;;10.67;9.57;;;24.70;99.90;;;;;;4993679;28;20442;-66
2021/08/14 06:59:42;;;;;;;11.00;10.03;;;25.00;99.90;;;;;;4993086;28;20207;-65
2021/08/14 07:02:08;;;;;;;11.03;10.13;;;25.40;99.90;;;;;;5008496;28;20203;-65
2021/08/14 07:04:34;;;;;;;10.80;9.93;;;25.60;99.90;;;;;;4993793;28;20688;-66
2021/08/14 07:07:00;;;;;;;10.87;9.17;;;25.90;99.90;;;;;;4999179;28;20437;-65
2021/08/14 07:09:25;;;;;;;10.97;9.37;;;26.20;99.90;;;;;;5006646;28;20852;-66
2021/08/14 07:11:51;;;;;;;11.10;9.33;;;26.30;99.90;;;;;;4998629;28;20187;-65
2021/08/14 07:14:16;;;;;;;11.23;9.33;;;26.60;99.90;;;;;;4993023;28;20183;-66
2021/08/14 07:16:42;;;;;;;10.27;9.27;;;26.70;99.90;;;;;;4993235;28;20187;-64
2021/08/14 07:19:07;;;;;;;10.63;9.13;;;27.00;99.90;;;;;;4992629;28;20652;-65
2021/08/14 07:21:33;;;;;;;11.20;10.20;;;27.00;99.90;;;;;;4992999;28;20271;-65
2021/08/14 07:23:58;;;;;;;9.03;8.23;;;27.00;99.90;;;;;;5005948;28;20175;-65
2021/08/14 07:26:24;;;;;;;10.47;9.50;;;27.20;99.90;;;;;;5009308;28;20182;-64
2021/08/14 07:28:50;;;;;;;9.63;8.40;;;27.40;99.90;;;;;;4992538;28;20194;-65
2021/08/14 07:31:16;;;;;;;10.60;9.43;;;27.40;99.90;;;;;;4993342;28;20239;-64
2021/08/14 07:33:41;;;;;;;12.20;10.30;;;27.00;99.90;;;;;;5007001;28;20590;-65
2021/08/14 07:36:08;;;;;;;9.83;8.93;;;27.00;99.90;;;;;;4994866;28;20829;-64
2021/08/14 07:38:34;;;;;;;15.20;10.50;;;27.30;99.90;;;;;;5009875;28;20186;-65
2021/08/14 07:40:59;;;;;;;9.13;8.33;;;27.10;99.90;;;;;;4992731;28;20442;-64
2021/08/14 07:43:25;;;;;;;10.33;9.40;;;27.20;99.90;;;;;;5009945;28;20473;-64
2021/08/14 07:45:50;;;;;;;9.27;8.47;;;27.00;99.90;;;;;;4996008;28;20179;-64
2021/08/14 07:48:16;;;;;;;10.57;9.67;;;26.80;99.90;;;;;;5007432;28;20356;-65
2021/08/14 07:50:41;;;;;;;10.00;9.10;;;26.80;99.90;;;;;;5012920;28;20201;-66
2021/08/14 07:53:07;;;;;;;10.50;9.43;;;27.00;99.90;;;;;;5013230;28;20198;-65
2021/08/14 07:55:33;;;;;;;10.80;9.60;;;27.20;99.90;;;;;;5012336;28;20232;-64
2021/08/14 07:57:59;;;;;;;9.10;7.90;;;27.40;99.90;;;;;;5012048;28;20170;-64
2021/08/14 08:00:27;;;;;;;9.73;8.87;;;27.60;99.90;;;;;;5012081;28;20798;-64
2021/08/14 08:02:53;;;;;;;9.23;8.30;;;27.80;99.90;;;;;;5012321;28;20847;-64
2021/08/14 08:05:19;;;;;;;9.00;8.10;;;28.20;99.90;;;;;;5013063;28;20572;-64
2021/08/14 08:07:45;;;;;;;9.00;8.30;;;28.50;99.90;;;;;;5012248;28;20432;-64
2021/08/14 08:10:16;;;;;;;10.40;8.47;;;28.50;99.90;;;;;;5012364;28;20511;-64
2021/08/14 08:12:42;;;;;;;9.37;8.57;;;28.70;99.90;;;;;;5012679;28;20939;-64
2021/08/14 08:15:10;;;;;;;11.23;8.93;;;28.70;99.90;;;;;;5012407;28;20501;-64
2021/08/14 08:17:35;;;;;;;12.70;11.70;;;29.10;99.90;;;;;;5013469;28;20509;-64
2021/08/14 08:20:02;;;;;;;10.13;9.20;;;29.70;99.90;;;;;;5013819;28;20515;-64
2021/08/14 08:22:27;;;;;;;10.33;9.10;;;30.20;99.90;;;;;;5012529;28;20237;-64
2021/08/14 08:24:53;;;;;;;11.20;9.47;;;29.90;99.90;;;;;;5013074;28;20425;-63
2021/08/14 08:27:19;;;;;;;10.07;9.17;;;29.90;99.90;;;;;;5013613;28;20171;-63
2021/08/14 08:29:45;;;;;;;9.33;8.60;;;30.30;99.90;;;;;;5012706;28;20202;-63
2021/08/14 08:32:10;;;;;;;11.50;9.57;;;30.40;99.90;;;;;;5013508;28;20699;-64
2021/08/14 08:34:36;;;;;;;9.67;8.80;;;30.70;99.70;;;;;;5012966;28;20175;-63
2021/08/14 08:37:02;;;;;;;9.03;8.00;;;31.00;99.10;;;;;;5014320;28;20179;-63
2021/08/14 08:39:28;;;;;;;9.77;8.87;;;31.30;97.80;;;;;;5013123;28;20205;-64
2021/08/14 08:41:56;;;;;;;8.20;7.37;;;31.40;97.00;;;;;;5012089;28;20199;-64
2021/08/14 08:44:22;;;;;;;9.20;8.40;;;31.50;95.20;;;;;;5012179;28;20440;-63
2021/08/14 08:46:48;;;;;;;9.77;7.90;;;31.40;95.00;;;;;;5012693;28;20446;-64
2021/08/14 08:49:16;;;;;;;9.80;7.97;;;31.50;95.20;;;;;;5012873;28;20497;-64
2021/08/14 08:51:42;;;;;;;9.03;8.23;;;31.60;95.10;;;;;;5014220;28;20600;-64
2021/08/14 08:54:10;;;;;;;9.90;9.10;;;32.00;94.10;;;;;;5016279;28;20422;-63
2021/08/14 08:56:36;;;;;;;10.40;8.27;;;31.90;93.90;;;;;;5015850;28;20185;-64
2021/08/14 08:59:01;;;;;;;8.97;8.00;;;31.90;93.10;;;;;;5015444;28;20414;-64
2021/08/14 09:01:27;;;;;;;8.33;7.67;;;32.00;93.20;;;;;;5015582;28;20191;-63
2021/08/14 09:03:53;;;;;;;8.37;7.53;;;31.60;92.50;;;;;;5015689;28;20171;-64
2021/08/14 09:06:41;;;;;;;8.17;7.47;;;31.50;92.30;;;;;;5016002;28;20224;-63
2021/08/14 09:09:11;;;;;;;13.87;7.60;;;32.00;92.00;;;;;;5015542;28;20679;-64
2021/08/14 09:11:48;;;;;;;8.50;7.80;;;31.80;90.90;;;;;;5015605;28;20433;-64
2021/08/14 09:14:13;;;;;;;8.67;7.93;;;31.80;91.60;;;;;;5015739;28;20418;-64
2021/08/14 09:16:39;;;;;;;8.30;7.50;;;32.30;90.80;;;;;;5016298;28;20414;-65
2021/08/14 09:19:04;;;;;;;8.00;7.37;;;32.60;89.80;;;;;;5015758;28;20179;-64
2021/08/14 09:21:35;;;;;;;8.87;8.03;;;33.00;88.40;;;;;;5016294;28;20211;-63
2021/08/14 09:24:04;;;;;;;7.30;6.73;;;33.30;86.50;;;;;;5017468;28;20175;-64
2021/08/14 09:26:38;;;;;;;8.20;7.50;;;33.30;85.40;;;;;;5019145;28;20418;-64
2021/08/14 09:29:06;;;;;;;7.90;7.20;;;33.60;84.80;;;;;;5017506;28;20446;-64
2021/08/14 09:31:48;;;;;;;7.93;7.23;;;34.20;83.30;;;;;;5018192;28;20567;-64
2021/08/14 09:34:15;;;;;;;7.63;7.10;;;33.80;82.30;;;;;;5017529;28;20501;-64
2021/08/14 09:36:41;;;;;;;10.07;7.50;;;34.00;82.20;;;;;;5018653;28;20422;-64
2021/08/14 09:39:07;;;;;;;8.40;7.67;;;34.30;81.60;;;;;;5017790;28;20782;-64
2021/08/14 09:41:32;;;;;;;8.03;7.27;;;34.90;80.00;;;;;;5017409;28;20205;-65
2021/08/14 09:43:58;;;;;;;7.57;7.00;;;35.40;77.30;;;;;;5017402;28;20203;-62
2021/08/14 09:46:41;;;;;;;8.37;7.77;;;35.70;75.90;;;;;;5015465;28;20596;-62
2021/08/14 09:49:06;;;;;;;9.23;8.07;;;35.70;75.10;;;;;;5014933;28;20187;-62
2021/08/14 09:51:33;;;;;;;8.67;7.87;;;35.80;73.00;;;;;;5016337;28;20822;-62
2021/08/14 09:54:04;;;;;;;8.87;7.93;;;35.60;74.90;;;;;;5015529;28;20258;-62
2021/08/14 09:56:36;;;;;;;11.83;7.93;;;36.90;72.00;;;;;;5014611;28;20418;-63
2021/08/14 09:59:03;;;;;;;10.27;7.70;;;37.60;69.40;;;;;;5014111;28;20501;-62
2021/08/14 10:01:31;;;;;;;9.87;7.37;;;37.60;67.40;;;;;;5014340;28;20465;-62
2021/08/14 10:03:58;;;;;;;8.13;7.33;;;38.00;66.20;;;;;;5013779;28;20457;-62
2021/08/14 10:06:23;;;;;;;8.90;8.00;;;38.50;65.00;;;;;;5014140;28;20418;-62
2021/08/14 10:08:49;;;;;;;8.57;7.77;;;38.50;63.60;;;;;;5014029;28;20778;-62
2021/08/14 10:11:15;;;;;;;9.07;8.27;;;38.60;62.70;;;;;;5014288;28;20285;-62
2021/08/14 10:13:42;;;;;;;9.07;8.10;;;38.20;61.60;;;;;;5014146;28;20175;-62
2021/08/14 10:16:12;;;;;;;9.00;8.10;;;38.30;61.80;;;;;;5014179;28;20179;-62
2021/08/14 10:18:41;;;;;;;8.40;7.60;;;39.50;59.70;;;;;;5013640;28;20422;-63
2021/08/14 10:21:12;;;;;;;10.10;9.20;;;40.10;58.00;;;;;;5014558;28;20528;-63
2021/08/14 10:23:39;;;;;;;10.80;9.67;;;40.40;56.70;;;;;;5013899;28;20430;-61
2021/08/14 10:26:08;;;;;;;9.07;8.33;;;40.10;56.20;;;;;;5013830;28;20425;-62
2021/08/14 10:28:44;;;;;;;9.17;8.37;;;39.80;56.10;;;;;;5013271;28;20620;-61
2021/08/14 10:31:29;;;;;;;7.93;7.43;;;38.00;57.20;;;;;;5013436;28;20465;-61
2021/08/14 10:34:10;;;;;;;8.80;7.90;;;38.00;58.80;;;;;;5013412;28;20425;-62
2021/08/14 10:36:37;;;;;;;8.40;7.80;;;39.20;58.10;;;;;;5013599;28;20418;-62
2021/08/14 10:39:27;;;;;;;9.93;7.30;;;40.70;56.50;;;;;;5013217;28;20854;-61
2021/08/14 10:41:57;;;;;;;9.20;8.50;;;41.30;54.30;;;;;;5013290;28;20524;-62
2021/08/14 10:44:52;;;;;;;8.03;7.53;;;42.20;53.20;;;;;;5013378;28;20973;-62
2021/08/14 10:47:32;;;;;;;8.20;7.50;;;42.70;51.80;;;;;;5010167;28;20476;-62
2021/08/14 10:49:58;;;;;;;8.70;8.00;;;42.60;51.40;;;;;;5012856;28;20449;-62
2021/08/14 10:52:38;;;;;;;8.70;8.10;;;41.20;52.20;;;;;;5013125;28;20450;-62
2021/08/14 10:55:09;;;;;;;7.83;7.33;;;42.10;51.30;;;;;;5013260;28;20422;-62
2021/08/14 10:57:43;;;;;;;8.93;8.07;;;43.70;49.00;;;;;;5013254;28;20476;-62
2021/08/14 11:00:26;;;;;;;9.53;8.60;;;44.20;47.60;;;;;;5012831;28;20413;-62
2021/08/14 11:03:07;;;;;;;7.40;7.00;;;43.80;47.70;;;;;;5013040;28;20966;-61
2021/08/14 11:05:34;;;;;;;9.13;8.37;;;43.00;47.70;;;;;;5013079;28;20429;-62
2021/08/14 11:08:00;;;;;;;7.70;7.10;;;42.30;48.90;;;;;;5012892;28;20928;-62
2021/08/14 11:10:44;;;;;;;9.60;9.00;;;43.30;48.10;;;;;;5012637;28;20449;-62
2021/08/14 11:13:31;;;;;;;8.30;7.80;;;43.40;47.00;;;;;;5012730;28;20943;-61
2021/08/14 11:15:58;;;;;;;8.20;7.70;;;43.60;46.60;;;;;;5011994;28;20424;-61
2021/08/14 11:18:49;;;;;;;8.60;8.00;;;44.90;46.00;;;;;;4994917;28;20432;-62
2021/08/14 11:21:15;;;;;;;8.70;7.90;;;45.50;45.00;;;;;;5012535;28;20465;-62
2021/08/14 11:23:59;;;;;;;9.33;8.63;;;45.60;44.40;;;;;;5012668;28;20420;-62
2021/08/14 11:26:35;;;;;;;8.77;8.13;;;46.60;44.00;;;;;;5014147;28;20171;-62
2021/08/14 11:29:01;;;;;;;8.70;8.10;;;46.30;43.10;;;;;;5012572;28;20756;-61
2021/08/14 11:31:28;;;;;;;9.27;8.60;;;45.40;43.70;;;;;;4995069;28;20508;-63
2021/08/14 11:34:13;;;;;;;9.50;8.80;;;43.00;45.30;;;;;;5013138;28;20426;-63
2021/08/14 11:36:41;;;;;;;8.30;7.70;;;41.50;46.80;;;;;;5015066;28;20420;-61
2021/08/14 11:39:07;;;;;;;9.57;8.87;;;40.50;47.80;;;;;;5014754;28;20500;-62
2021/08/14 11:41:33;;;;;;;9.90;9.20;;;39.30;49.10;;;;;;5015705;28;20578;-62
2021/08/14 11:44:06;;;;;;;8.37;7.80;;;38.30;50.10;;;;;;5016171;28;20417;-62
2021/08/14 11:46:32;;;;;;;9.23;8.53;;;38.00;50.60;;;;;;5015659;28;20182;-62
2021/08/14 11:49:03;;;;;;;9.03;8.33;;;37.40;51.10;;;;;;5014675;28;20418;-62
2021/08/14 11:51:29;;;;;;;9.50;8.80;;;36.60;52.40;;;;;;5013688;28;20866;-62
2021/08/14 11:54:10;;;;;;;10.70;9.90;;;36.20;53.20;;;;;;5015600;28;20505;-62
2021/08/14 11:56:37;;;;;;;9.43;8.83;;;36.20;54.30;;;;;;5015660;28;20784;-62
2021/08/14 11:59:03;;;;;;;10.07;9.10;;;35.90;53.40;;;;;;5016000;28;20418;-61
2021/08/14 12:01:29;;;;;;;9.47;8.67;;;35.60;54.10;;;;;;5016507;28;20561;-61
2021/08/14 12:04:02;;;;;;;10.00;9.30;;;35.40;54.60;;;;;;5016192;28;20454;-62
2021/08/14 12:06:29;;;;;;;10.13;9.23;;;35.20;54.70;;;;;;5016258;28;20178;-61
2021/08/14 12:08:57;;;;;;;10.37;9.40;;;35.10;55.20;;;;;;5014213;28;20421;-62
2021/08/14 12:11:26;;;;;;;14.10;9.40;;;37.10;53.90;;;;;;5012500;28;20457;-62
2021/08/14 12:14:21;;;;;;;8.70;8.10;;;39.80;51.00;;;;;;5012184;28;20436;-63
2021/08/14 12:16:57;;;;;;;9.30;8.60;;;42.20;47.40;;;;;;5012527;28;20564;-63
2021/08/14 12:19:23;;;;;;;7.93;7.40;;;44.50;45.70;;;;;;5013342;28;20422;-63
2021/08/14 12:22:06;;;;;;;9.40;8.60;;;46.60;43.30;;;;;;5013963;28;20461;-63
2021/08/14 12:24:31;;;;;;;9.37;8.77;;;47.50;41.60;;;;;;5013214;28;20947;-63
2021/08/14 12:26:57;;;;;;;8.87;8.03;;;46.10;41.00;;;;;;5014379;28;20425;-63
2021/08/14 12:29:23;;;;;;;9.40;8.80;;;46.70;41.50;;;;;;5016931;28;20194;-62
2021/08/14 12:31:54;;;;;;;9.50;8.80;;;47.20;41.30;;;;;;5017475;28;20195;-62
2021/08/14 12:34:30;;;;;;;10.23;9.20;;;48.20;41.10;;;;;;5017442;28;20472;-63
2021/08/14 12:37:08;;;;;;;10.30;9.60;;;49.50;40.00;;;;;;5016243;28;20439;-62
2021/08/14 12:39:43;;;;;;;9.17;8.57;;;48.60;39.30;;;;;;5015552;28;20412;-63